Time;durP1;ratioP1;P1;durP2;ratioP2;P2;SDS_P1;SDS_P2;PMS_P1;PMS_P2;Temp;Humidity;BMP_temperature;BMP_pressure;BME280_temperature;BME280_humidity;BME280_pressure;Samples;Min_cycle;Max_cycle;Signal;HPM_P1;HPM_P2
2023/09/12 00:00:55;;;;;;;28.77;19.40;;;;;;;19.63;100.00;101160.84;5093766;28;20379;-62
2023/09/12 00:03:22;;;;;;;27.13;18.80;;;;;;;19.72;100.00;101163.28;5094000;28;20032;-62
2023/09/12 00:05:55;;;;;;;30.38;19.95;;;;;;;19.56;100.00;101165.53;5093795;28;20028;-63
2023/09/12 00:08:20;;;;;;;30.27;20.42;;;;;;;19.58;100.00;101162.78;5093570;28;20035;-62
2023/09/12 00:10:46;;;;;;;30.20;20.75;;;;;;;19.56;100.00;101175.38;5093771;28;20028;-62
2023/09/12 00:13:11;;;;;;;28.90;20.02;;;;;;;19.41;100.00;101172.19;5093372;28;20028;-65
2023/09/12 00:15:37;;;;;;;28.25;20.15;;;;;;;19.44;100.00;101174.78;5093580;28;20107;-63
2023/09/12 00:18:03;;;;;;;29.52;19.98;;;;;;;19.45;100.00;101176.53;5094149;28;20168;-63
2023/09/12 00:20:28;;;;;;;30.38;20.88;;;;;;;19.38;100.00;101177.59;5093488;28;20036;-63
2023/09/12 00:22:54;;;;;;;28.17;19.60;;;;;;;19.31;100.00;101181.41;5093296;28;20124;-64
2023/09/12 00:25:20;;;;;;;30.60;18.10;;;;;;;19.29;100.00;101177.88;5093614;28;20482;-63
2023/09/12 00:27:46;;;;;;;28.08;17.75;;;;;;;19.26;100.00;101186.00;5093235;28;20115;-62
2023/09/12 00:30:13;;;;;;;28.10;18.50;;;;;;;19.21;100.00;101183.44;5093168;28;20115;-65
2023/09/12 00:32:38;;;;;;;29.13;18.83;;;;;;;19.12;100.00;101175.63;5093555;28;20032;-67
2023/09/12 00:35:04;;;;;;;28.58;19.60;;;;;;;19.08;100.00;101176.66;5093144;28;20024;-67
2023/09/12 00:37:30;;;;;;;29.73;19.35;;;;;;;18.98;100.00;101179.53;5092469;28;20499;-63
2023/09/12 00:39:55;;;;;;;29.85;18.55;;;;;;;18.95;100.00;101186.78;5092969;28;20128;-65
2023/09/12 00:42:20;;;;;;;27.15;16.25;;;;;;;18.94;100.00;101177.00;5092914;28;20036;-63
2023/09/12 00:44:46;;;;;;;26.42;18.20;;;;;;;18.85;100.00;101183.41;5092894;28;20030;-63
2023/09/12 00:47:12;;;;;;;25.42;17.38;;;;;;;18.80;100.00;101182.66;5093137;28;20095;-63
2023/09/12 00:49:39;;;;;;;28.08;19.00;;;;;;;18.70;100.00;101183.78;5091900;28;20062;-65
2023/09/12 00:52:05;;;;;;;28.13;17.60;;;;;;;18.57;100.00;101177.88;5088623;28;20112;-62
2023/09/12 00:54:30;;;;;;;26.63;17.17;;;;;;;18.54;100.00;101176.13;5093056;28;20044;-65
2023/09/12 00:56:56;;;;;;;26.30;16.25;;;;;;;18.45;100.00;101176.38;5092858;28;20036;-66
2023/09/12 00:59:22;;;;;;;25.23;15.43;;;;;;;18.40;100.00;101176.44;5092970;28;20059;-64
2023/09/12 01:01:48;;;;;;;25.25;15.85;;;;;;;18.52;100.00;101179.75;5092697;28;20059;-63
2023/09/12 01:04:14;;;;;;;30.05;15.25;;;;;;;18.41;100.00;101170.19;5092757;28;20028;-62
2023/09/12 01:06:39;;;;;;;35.05;16.25;;;;;;;18.34;100.00;101168.56;5093039;28;20028;-64
2023/09/12 01:09:05;;;;;;;26.92;14.88;;;;;;;18.38;100.00;101172.94;5092793;28;20047;-63
2023/09/12 01:11:31;;;;;;;23.55;14.80;;;;;;;18.40;100.00;101159.50;5092727;28;20368;-63
2023/09/12 01:13:56;;;;;;;23.35;13.95;;;;;;;18.37;100.00;101163.13;5092807;28;20067;-64
2023/09/12 01:16:22;;;;;;;24.90;14.68;;;;;;;18.29;100.00;101162.44;5092544;28;20028;-63
2023/09/12 01:18:48;;;;;;;24.20;15.48;;;;;;;18.29;100.00;101159.78;5091421;28;20036;-67
2023/09/12 01:21:36;;;;;;;25.30;15.25;;;;;;;18.26;100.00;101170.53;5092725;28;20386;-65
2023/09/12 01:24:20;;;;;;;23.17;13.95;;;;;;;18.14;100.00;101166.31;5092736;28;20032;-64
2023/09/12 01:26:54;;;;;;;25.45;14.18;;;;;;;18.08;100.00;101167.34;5090148;28;20034;-62
2023/09/12 01:29:22;;;;;;;23.98;13.38;;;;;;;18.05;100.00;101167.41;5091257;28;20020;-67
2023/09/12 01:31:49;;;;;;;23.70;14.85;;;;;;;18.03;100.00;101166.56;5092480;28;20024;-67
2023/09/12 01:34:14;;;;;;;23.35;13.05;;;;;;;17.96;100.00;101151.56;5092475;28;20467;-64
2023/09/12 01:36:40;;;;;;;25.38;15.68;;;;;;;17.93;100.00;101154.31;5092689;28;20097;-63
2023/09/12 01:39:05;;;;;;;25.08;15.68;;;;;;;17.90;100.00;101157.94;5092444;28;20028;-65
2023/09/12 01:41:35;;;;;;;23.85;14.25;;;;;;;17.91;100.00;101156.13;5092580;28;20032;-70
2023/09/12 01:44:02;;;;;;;24.30;14.32;;;;;;;17.87;100.00;101159.75;5092607;28;20071;-70
2023/09/12 01:46:31;;;;;;;21.58;10.38;;;;;;;17.96;100.00;101159.59;5092385;28;20035;-69
2023/09/12 01:48:58;;;;;;;23.13;13.07;;;;;;;17.88;100.00;101157.06;5093175;28;20475;-69
2023/09/12 01:51:25;;;;;;;21.73;11.32;;;;;;;17.79;100.00;101154.56;5096441;28;20028;-70
2023/09/12 01:53:51;;;;;;;21.42;10.98;;;;;;;17.76;100.00;101158.16;5095982;28;20055;-69
2023/09/12 01:56:17;;;;;;;23.55;11.40;;;;;;;17.68;100.00;101154.78;5096103;28;20024;-69
2023/09/12 01:58:43;;;;;;;22.23;11.75;;;;;;;17.67;100.00;101163.72;5096287;28;20077;-69
2023/09/12 02:01:09;;;;;;;22.35;11.95;;;;;;;17.54;100.00;101167.53;5094632;28;20123;-70
2023/09/12 02:03:34;;;;;;;23.45;11.13;;;;;;;17.46;100.00;101167.72;5095902;28;20028;-70
2023/09/12 02:06:00;;;;;;;21.52;10.57;;;;;;;17.46;100.00;101153.44;5096044;28;20039;-70
2023/09/12 02:08:25;;;;;;;23.40;11.30;;;;;;;17.45;100.00;101157.03;5095789;28;20477;-70
2023/09/12 02:10:50;;;;;;;22.60;10.70;;;;;;;17.39;100.00;101152.69;5095936;28;20027;-70
2023/09/12 02:13:16;;;;;;;20.92;11.30;;;;;;;17.35;100.00;101149.19;5095686;28;20115;-69
2023/09/12 02:15:41;;;;;;;27.20;11.27;;;;;;;17.32;100.00;101151.91;5095661;28;20068;-69
2023/09/12 02:18:06;;;;;;;24.08;11.40;;;;;;;17.27;100.00;101148.47;5095936;28;20087;-70
2023/09/12 02:20:37;;;;;;;25.40;10.55;;;;;;;17.27;100.00;101153.81;5095519;28;20039;-70
2023/09/12 02:23:03;;;;;;;21.00;9.85;;;;;;;17.28;100.00;101150.22;5095583;28;20027;-70
2023/09/12 02:25:28;;;;;;;21.25;10.32;;;;;;;17.30;100.00;101156.44;5094373;28;20024;-67
2023/09/12 02:27:53;;;;;;;21.65;9.98;;;;;;;17.22;100.00;101155.66;5095497;28;20112;-65
2023/09/12 02:30:19;;;;;;;20.65;10.43;;;;;;;17.27;100.00;101156.47;5095446;28;20070;-66
2023/09/12 02:32:44;;;;;;;23.45;11.75;;;;;;;17.28;100.00;101158.22;5095774;28;20101;-67
2023/09/12 02:35:09;;;;;;;24.35;15.75;;;;;;;17.32;100.00;101162.59;5095425;28;20475;-67
2023/09/12 02:37:35;;;;;;;24.85;16.08;;;;;;;17.34;100.00;101163.44;5095493;28;20127;-66
2023/09/12 02:40:00;;;;;;;25.33;15.85;;;;;;;17.31;100.00;101159.97;5095384;28;20098;-67
2023/09/12 02:42:26;;;;;;;25.88;15.20;;;;;;;17.23;100.00;101162.78;5095244;28;20169;-67
2023/09/12 02:44:52;;;;;;;23.20;14.07;;;;;;;17.27;100.00;101158.25;5095382;28;20360;-67
2023/09/12 02:47:17;;;;;;;23.83;14.82;;;;;;;17.32;100.00;101154.59;5095434;28;20543;-67
2023/09/12 02:49:43;;;;;;;24.98;14.95;;;;;;;17.33;100.00;101159.03;5095271;28;20032;-68
2023/09/12 02:52:08;;;;;;;24.58;15.43;;;;;;;17.31;100.00;101160.84;5094937;28;20048;-65
2023/09/12 02:54:33;;;;;;;25.30;15.68;;;;;;;17.32;100.00;101161.72;5095276;28;20031;-65
2023/09/12 02:56:59;;;;;;;23.60;14.65;;;;;;;17.29;100.00;101156.44;5094886;28;20119;-68
2023/09/12 02:59:24;;;;;;;24.52;14.35;;;;;;;17.28;100.00;101157.34;5094606;28;20097;-67
2023/09/12 03:01:50;;;;;;;25.05;14.30;;;;;;;17.29;100.00;101154.66;5094729;28;20169;-66
2023/09/12 03:04:15;;;;;;;36.20;13.93;;;;;;;17.27;100.00;101164.50;5094873;28;20117;-67
2023/09/12 03:06:40;;;;;;;23.92;12.23;;;;;;;17.20;100.00;101160.19;5093710;28;20031;-66
2023/09/12 03:09:06;;;;;;;22.02;12.43;;;;;;;17.23;100.00;101158.31;5094724;28;20024;-67
2023/09/12 03:11:32;;;;;;;21.40;11.77;;;;;;;17.18;100.00;101156.63;5093420;28;20115;-65
2023/09/12 03:13:57;;;;;;;23.17;14.27;;;;;;;17.17;100.00;101158.44;5093834;28;20024;-68
2023/09/12 03:16:24;;;;;;;23.73;15.20;;;;;;;17.14;100.00;101163.84;5094811;28;20063;-68
2023/09/12 03:18:49;;;;;;;23.83;14.60;;;;;;;17.08;100.00;101164.81;5094829;28;20148;-67
2023/09/12 03:21:15;;;;;;;24.48;14.90;;;;;;;17.06;100.00;101160.41;5094615;28;20111;-66
2023/09/12 03:23:40;;;;;;;22.75;12.65;;;;;;;16.96;100.00;101151.66;5094707;28;20035;-68
2023/09/12 03:26:06;;;;;;;23.95;12.68;;;;;;;16.87;100.00;101144.69;5094583;28;20039;-68
2023/09/12 03:28:32;;;;;;;21.92;12.45;;;;;;;16.84;100.00;101135.84;5094520;28;20032;-62
2023/09/12 03:31:07;;;;;;;23.13;12.13;;;;;;;16.85;100.00;101137.59;5094316;28;20024;-62
2023/09/12 03:33:32;;;;;;;22.70;11.57;;;;;;;16.79;100.00;101140.34;5094190;28;20493;-68
2023/09/12 03:35:57;;;;;;;22.40;11.48;;;;;;;16.71;100.00;101143.16;5094649;28;20028;-64
2023/09/12 03:38:23;;;;;;;21.35;11.75;;;;;;;16.67;100.00;101142.34;5092798;28;20428;-67
2023/09/12 03:40:48;;;;;;;21.55;11.80;;;;;;;16.70;100.00;101138.72;5094021;28;20482;-69
2023/09/12 03:43:13;;;;;;;22.42;12.43;;;;;;;16.74;100.00;101141.31;5094232;28;20032;-70
2023/09/12 03:45:39;;;;;;;22.98;12.95;;;;;;;16.72;100.00;101145.81;5094063;28;20035;-68
2023/09/12 03:48:04;;;;;;;24.40;13.65;;;;;;;16.73;100.00;101139.56;5093903;28;20016;-67
2023/09/12 03:50:30;;;;;;;23.90;13.40;;;;;;;16.77;100.00;101147.53;5094056;28;20479;-67
2023/09/12 03:52:56;;;;;;;24.90;12.38;;;;;;;16.70;100.00;101150.31;5093697;28;20093;-67
2023/09/12 03:55:21;;;;;;;24.65;13.00;;;;;;;16.69;100.00;101148.53;5094061;28;20028;-65
2023/09/12 03:57:47;;;;;;;24.02;12.85;;;;;;;16.65;100.00;101152.16;5093737;28;20031;-64
2023/09/12 04:00:13;;;;;;;22.50;12.68;;;;;;;16.69;100.00;101145.88;5092481;28;20076;-67
2023/09/12 04:02:38;;;;;;;21.95;13.10;;;;;;;16.76;100.00;101146.66;5092645;28;20074;-70
2023/09/12 04:05:04;;;;;;;23.75;13.43;;;;;;;16.78;100.00;101147.50;5093524;28;20035;-70
2023/09/12 04:07:29;;;;;;;23.70;13.40;;;;;;;16.83;100.00;101139.41;5093618;28;20038;-64
2023/09/12 04:09:55;;;;;;;22.88;12.73;;;;;;;16.89;100.00;101142.00;5093675;28;20056;-67
2023/09/12 04:12:20;;;;;;;22.48;12.55;;;;;;;16.90;100.00;101141.09;5092715;28;20048;-63
2023/09/12 04:14:45;;;;;;;23.80;14.13;;;;;;;16.96;100.00;101143.66;5093507;28;20021;-65
2023/09/12 04:17:11;;;;;;;24.23;13.70;;;;;;;17.01;100.00;101130.25;5093622;28;20028;-66
2023/09/12 04:19:36;;;;;;;22.65;13.45;;;;;;;17.11;100.00;101133.59;5093226;28;20020;-67
2023/09/12 04:22:02;;;;;;;23.75;13.98;;;;;;;17.08;100.00;101132.78;5093297;28;20040;-68
2023/09/12 04:24:27;;;;;;;25.45;14.60;;;;;;;17.11;100.00;101136.28;5093724;28;20040;-67
2023/09/12 04:26:53;;;;;;;24.80;14.95;;;;;;;17.12;100.00;101127.38;5093296;28;20027;-67
2023/09/12 04:29:19;;;;;;;25.75;15.52;;;;;;;17.07;100.00;101127.47;5091848;28;20116;-62
2023/09/12 04:31:44;;;;;;;25.75;15.57;;;;;;;17.07;100.00;101130.13;5093383;28;20107;-64
2023/09/12 04:34:09;;;;;;;25.27;15.70;;;;;;;17.03;100.00;101145.31;5093070;28;20059;-66
2023/09/12 04:36:35;;;;;;;28.27;17.85;;;;;;;16.98;100.00;101148.97;5091949;28;20032;-66
2023/09/12 04:39:00;;;;;;;27.42;18.42;;;;;;;16.91;100.00;101150.88;5093107;28;20032;-67
2023/09/12 04:41:25;;;;;;;28.42;19.00;;;;;;;16.88;100.00;101154.47;5092936;28;20028;-67
2023/09/12 04:43:51;;;;;;;27.70;19.85;;;;;;;16.84;100.00;101150.06;5093071;28;20033;-66
2023/09/12 04:46:16;;;;;;;27.52;19.40;;;;;;;16.84;100.00;101154.53;5093085;28;20401;-67
2023/09/12 04:48:41;;;;;;;27.65;19.38;;;;;;;16.88;100.00;101150.94;5092729;28;20035;-68
2023/09/12 04:51:07;;;;;;;28.10;19.08;;;;;;;16.90;100.00;101155.31;5093127;28;20036;-66
2023/09/12 04:53:35;;;;;;;28.42;18.50;;;;;;;16.83;100.00;101155.44;5091489;28;20052;-68
2023/09/12 04:56:04;;;;;;;26.85;19.38;;;;;;;16.80;100.00;101161.69;5088898;28;20034;-67
2023/09/12 04:58:30;;;;;;;26.65;18.63;;;;;;;16.78;100.00;101167.97;5089024;28;20044;-68
2023/09/12 05:00:56;;;;;;;27.35;19.63;;;;;;;16.69;100.00;101167.22;5092585;28;20368;-68
2023/09/12 05:03:24;;;;;;;27.50;19.77;;;;;;;16.69;100.00;101169.88;5091525;28;20035;-68
2023/09/12 05:05:50;;;;;;;27.58;19.38;;;;;;;16.67;100.00;101174.38;5092909;28;20024;-67
2023/09/12 05:08:16;;;;;;;27.58;19.38;;;;;;;16.63;100.00;101167.31;5092666;28;20020;-68
2023/09/12 05:10:44;;;;;;;30.63;21.40;;;;;;;16.65;100.00;101176.16;5092810;28;20407;-67
2023/09/12 05:13:09;;;;;;;29.30;20.58;;;;;;;16.67;100.00;101168.13;5092764;28;20024;-67
2023/09/12 05:15:36;;;;;;;29.13;20.77;;;;;;;16.69;100.00;101171.69;5091439;28;20035;-67
2023/09/12 05:18:02;;;;;;;27.20;19.92;;;;;;;16.79;100.00;101167.06;5092506;28;20056;-70
2023/09/12 05:20:27;;;;;;;28.45;19.92;;;;;;;16.81;100.00;101181.28;5088423;28;20063;-69
2023/09/12 05:22:53;;;;;;;28.23;19.73;;;;;;;16.88;100.00;101174.97;5090862;28;20036;-70
2023/09/12 05:25:18;;;;;;;28.00;19.30;;;;;;;16.94;100.00;101164.16;5096897;28;20371;-70
2023/09/12 05:27:43;;;;;;;28.30;19.55;;;;;;;17.00;100.00;101161.38;5096867;28;20557;-70
2023/09/12 05:30:09;;;;;;;27.90;19.23;;;;;;;17.07;100.00;101148.81;5092307;28;20032;-70
2023/09/12 05:32:36;;;;;;;28.45;19.42;;;;;;;17.12;100.00;101138.94;5092970;28;20073;-66
2023/09/12 05:35:02;;;;;;;28.90;19.33;;;;;;;17.19;100.00;101142.38;5090488;28;20050;-72
2023/09/12 05:37:27;;;;;;;27.70;18.88;;;;;;;17.20;100.00;101141.47;5095557;28;20243;-68
2023/09/12 05:39:53;;;;;;;28.15;18.48;;;;;;;17.22;100.00;101139.66;5092341;28;20032;-70
2023/09/12 05:42:20;;;;;;;28.48;19.77;;;;;;;17.22;100.00;101135.16;5096548;28;20086;-74
2023/09/12 05:44:48;;;;;;;28.77;19.90;;;;;;;17.25;100.00;101145.78;5096116;28;20029;-71
2023/09/12 05:47:14;;;;;;;29.45;20.20;;;;;;;17.25;100.00;101145.78;5096464;28;20028;-69
2023/09/12 05:49:39;;;;;;;30.00;20.40;;;;;;;17.32;100.00;101141.22;5094145;28;20039;-71
2023/09/12 05:52:05;;;;;;;27.95;19.50;;;;;;;17.36;100.00;101147.41;5087193;28;20487;-71
2023/09/12 05:54:31;;;;;;;29.08;20.17;;;;;;;17.32;100.00;101151.91;5086809;28;20055;-70
2023/09/12 05:56:56;;;;;;;28.35;19.58;;;;;;;17.35;100.00;101154.53;5095680;28;20119;-71
2023/09/12 05:59:21;;;;;;;28.10;19.55;;;;;;;17.34;100.00;101158.09;5096047;28;20043;-69
2023/09/12 06:01:48;;;;;;;28.20;17.75;;;;;;;17.37;100.00;101155.41;5092430;28;20024;-61
2023/09/12 06:04:14;;;;;;;25.70;17.55;;;;;;;17.41;100.00;101157.06;5096237;28;20035;-66
2023/09/12 06:06:39;;;;;;;28.15;18.58;;;;;;;17.40;100.00;101162.44;5095692;28;20390;-64
2023/09/12 06:09:05;;;;;;;26.80;17.88;;;;;;;17.40;100.00;101165.13;5095849;28;20111;-62
2023/09/12 06:11:31;;;;;;;26.23;16.33;;;;;;;17.50;100.00;101171.19;5095489;28;20099;-64
2023/09/12 06:13:56;;;;;;;27.30;18.42;;;;;;;17.55;100.00;101166.66;5095097;28;20467;-64
2023/09/12 06:16:22;;;;;;;28.38;18.77;;;;;;;17.53;100.00;101172.03;5095643;28;20039;-63
2023/09/12 06:18:48;;;;;;;28.40;19.42;;;;;;;17.53;100.00;101165.78;5095285;28;20016;-65
2023/09/12 06:21:14;;;;;;;26.67;18.35;;;;;;;17.57;100.00;101175.50;5095232;28;20115;-65
2023/09/12 06:23:39;;;;;;;28.17;18.42;;;;;;;17.55;100.00;101174.66;5094440;28;20025;-66
2023/09/12 06:26:04;;;;;;;27.45;18.33;;;;;;;17.50;100.00;101179.19;5094141;28;20038;-61
2023/09/12 06:28:31;;;;;;;27.65;18.23;;;;;;;17.55;100.00;101174.66;5092064;28;20024;-65
2023/09/12 06:30:57;;;;;;;27.90;18.02;;;;;;;17.59;100.00;101169.22;5091422;28;20033;-62
2023/09/12 06:33:24;;;;;;;26.85;18.95;;;;;;;17.65;100.00;101167.31;5090530;28;20485;-62
2023/09/12 06:35:50;;;;;;;28.65;18.50;;;;;;;17.67;100.00;101169.06;5094882;28;20028;-60
2023/09/12 06:38:16;;;;;;;30.02;18.95;;;;;;;17.63;100.00;101172.69;5091371;28;20360;-63
2023/09/12 06:40:46;;;;;;;28.15;18.48;;;;;;;17.57;100.00;101171.03;5094727;28;20024;-62
2023/09/12 06:43:11;;;;;;;28.88;19.80;;;;;;;17.62;100.00;101176.31;5095137;28;20035;-61
2023/09/12 06:45:37;;;;;;;29.35;20.20;;;;;;;17.63;100.00;101175.38;5095112;28;20024;-62
2023/09/12 06:48:03;;;;;;;29.38;20.05;;;;;;;17.69;100.00;101182.38;5095016;28;20812;-63
2023/09/12 06:50:29;;;;;;;29.20;20.48;;;;;;;17.74;100.00;101186.75;5092598;28;20024;-63
2023/09/12 06:52:54;;;;;;;30.02;20.25;;;;;;;17.82;100.00;101193.72;5094860;28;20543;-62
2023/09/12 06:55:20;;;;;;;31.30;20.48;;;;;;;17.86;100.00;101192.75;5095110;28;20438;-62
2023/09/12 06:57:46;;;;;;;31.33;20.75;;;;;;;17.96;100.00;101182.78;5095201;28;20111;-62
2023/09/12 07:00:12;;;;;;;28.70;20.98;;;;;;;18.09;100.00;101195.00;5094685;28;20082;-62
2023/09/12 07:02:38;;;;;;;31.00;21.83;;;;;;;18.15;100.00;101193.97;5094339;28;20036;-62
2023/09/12 07:05:04;;;;;;;30.75;21.10;;;;;;;18.25;100.00;101182.16;5094823;28;20016;-62
2023/09/12 07:07:30;;;;;;;32.97;22.83;;;;;;;18.30;100.00;101180.25;5094738;28;20066;-64
2023/09/12 07:09:56;;;;;;;32.33;22.63;;;;;;;18.32;100.00;101173.09;5090420;28;20060;-65
2023/09/12 07:12:21;;;;;;;32.05;22.75;;;;;;;18.41;100.00;101180.88;5094688;28;20032;-60
2023/09/12 07:14:47;;;;;;;32.65;23.05;;;;;;;18.55;100.00;101179.69;5084221;28;20024;-64
2023/09/12 07:17:12;;;;;;;33.33;22.77;;;;;;;18.62;100.00;101179.53;5082636;28;20037;-62
2023/09/12 07:19:37;;;;;;;32.25;22.90;;;;;;;18.72;100.00;101190.88;5094517;28;20112;-62
2023/09/12 07:22:03;;;;;;;34.33;22.58;;;;;;;18.71;100.00;101186.47;5085779;28;20103;-64
2023/09/12 07:24:28;;;;;;;31.83;22.27;;;;;;;18.73;100.00;101183.75;5083155;28;20032;-62
2023/09/12 07:26:54;;;;;;;31.38;22.73;;;;;;;18.71;100.00;101194.50;5085530;28;20028;-64
2023/09/12 07:29:19;;;;;;;31.10;22.33;;;;;;;18.66;100.00;101193.69;5083889;28;20029;-66
2023/09/12 07:31:45;;;;;;;33.45;22.80;;;;;;;18.63;100.00;101196.44;5085790;28;20501;-61
2023/09/12 07:34:11;;;;;;;32.72;22.45;;;;;;;18.60;100.00;101196.53;5094218;28;20059;-63
2023/09/12 07:36:37;;;;;;;32.05;22.92;;;;;;;18.56;100.00;101203.72;5094029;28;20031;-62
2023/09/12 07:39:04;;;;;;;33.90;23.35;;;;;;;18.61;100.00;101198.28;5089719;28;20032;-62
2023/09/12 07:41:30;;;;;;;35.38;23.73;;;;;;;18.63;100.00;101189.28;5094098;28;20506;-61
2023/09/12 07:43:55;;;;;;;32.90;22.65;;;;;;;18.73;100.00;101191.78;5092548;28;20039;-62
2023/09/12 07:46:20;;;;;;;33.95;22.77;;;;;;;18.83;100.00;101185.28;5093929;28;20032;-61
2023/09/12 07:48:46;;;;;;;32.80;22.83;;;;;;;18.90;100.00;101186.00;5092397;28;20024;-61
2023/09/12 07:51:17;;;;;;;33.38;23.23;;;;;;;19.10;100.00;101181.03;5091084;28;20434;-61
2023/09/12 07:53:43;;;;;;;31.88;21.63;;;;;;;19.25;100.00;101181.53;5093607;28;20044;-64
2023/09/12 07:56:12;;;;;;;32.30;21.73;;;;;;;19.36;100.00;101186.63;5093940;28;20383;-63
2023/09/12 07:58:38;;;;;;;30.15;20.75;;;;;;;19.49;100.00;101175.53;5093519;28;20084;-65
2023/09/12 08:01:08;;;;;;;31.10;20.27;;;;;;;19.57;100.00;101178.00;5088126;28;20495;-61
2023/09/12 08:03:38;;;;;;;29.55;19.77;;;;;;;19.70;100.00;101183.88;5089036;28;20566;-63
2023/09/12 08:06:03;;;;;;;30.73;20.25;;;;;;;19.81;100.00;101176.44;5093446;28;20023;-61
2023/09/12 08:08:30;;;;;;;29.35;18.83;;;;;;;19.84;100.00;101179.03;5093483;28;20020;-63
2023/09/12 08:10:56;;;;;;;30.20;19.70;;;;;;;19.91;100.00;101179.75;5093538;28;20043;-63
2023/09/12 08:13:22;;;;;;;29.52;19.23;;;;;;;20.20;100.00;101192.28;5093332;28;20030;-69
2023/09/12 08:15:47;;;;;;;29.00;18.92;;;;;;;20.67;100.00;101202.50;5089006;28;20110;-68
2023/09/12 08:18:13;;;;;;;28.23;17.83;;;;;;;21.00;100.00;101202.34;5092542;28;20488;-71
2023/09/12 08:20:38;;;;;;;27.33;18.00;;;;;;;21.31;100.00;101201.28;5093060;28;20125;-69
2023/09/12 08:23:04;;;;;;;27.55;18.08;;;;;;;21.52;100.00;101194.31;5093092;28;20038;-70
2023/09/12 08:25:29;;;;;;;26.75;17.88;;;;;;;21.72;100.00;101195.38;5093583;28;20423;-71
2023/09/12 08:27:54;;;;;;;26.73;17.52;;;;;;;21.71;100.00;101194.53;5092564;28;20111;-71
2023/09/12 08:30:20;;;;;;;25.35;14.68;;;;;;;21.53;100.00;101198.75;5093283;28;20038;-68
2023/09/12 08:32:45;;;;;;;24.35;14.88;;;;;;;21.42;100.00;101208.97;5088640;28;20078;-68
2023/09/12 08:35:14;;;;;;;26.70;15.65;;;;;;;21.37;100.00;101213.63;5091632;28;20032;-69
2023/09/12 08:37:41;;;;;;;26.48;16.00;;;;;;;21.28;100.00;101217.53;5093204;28;20043;-69
2023/09/12 08:40:08;;;;;;;26.17;16.45;;;;;;;21.21;100.00;101216.84;5090691;28;20474;-70
2023/09/12 08:42:40;;;;;;;24.70;15.73;;;;;;;21.04;100.00;101225.50;5093090;28;20425;-69
2023/09/12 08:45:11;;;;;;;24.52;15.93;;;;;;;21.13;100.00;101226.09;5086134;28;20024;-70
2023/09/12 08:47:40;;;;;;;24.92;15.65;;;;;;;21.15;100.00;101217.06;5092899;28;20120;-74
2023/09/12 08:50:06;;;;;;;25.27;15.65;;;;;;;21.24;100.00;101208.66;5092765;28;20028;-74
2023/09/12 08:52:32;;;;;;;25.30;15.30;;;;;;;21.39;100.00;101214.44;5088380;28;20035;-73
2023/09/12 08:54:57;;;;;;;26.75;16.05;;;;;;;21.56;100.00;101222.84;5092783;28;20063;-68
2023/09/12 08:57:24;;;;;;;24.92;15.70;;;;;;;21.59;100.00;101217.34;5092328;28;20043;-62
2023/09/12 08:59:50;;;;;;;24.48;14.25;;;;;;;21.64;100.00;101221.69;5092449;28;20028;-66
2023/09/12 09:02:16;;;;;;;23.60;14.18;;;;;;;21.90;100.00;101218.94;5092758;28;20038;-63
2023/09/12 09:04:42;;;;;;;22.95;13.65;;;;;;;22.55;100.00;101216.47;5084999;28;20032;-61
2023/09/12 09:07:10;;;;;;;20.52;10.10;;;;;;;23.08;100.00;101222.41;5081086;28;20123;-64
2023/09/12 09:09:35;;;;;;;22.80;12.93;;;;;;;23.55;100.00;101233.03;5080591;28;20025;-62
2023/09/12 09:12:01;;;;;;;20.27;8.77;;;;;;;23.61;100.00;101221.09;5082374;28;20085;-64
2023/09/12 09:14:29;;;;;;;20.05;8.60;;;;;;;23.97;100.00;101218.56;5078846;28;20032;-62
2023/09/12 09:16:54;;;;;;;21.08;10.18;;;;;;;24.51;100.00;101207.06;5079453;28;20039;-62
2023/09/12 09:19:20;;;;;;;23.95;12.90;;;;;;;25.27;100.00;101201.50;5082899;28;20021;-63
2023/09/12 09:21:45;;;;;;;25.55;14.20;;;;;;;25.64;100.00;101188.75;5082548;28;20383;-64
2023/09/12 09:24:12;;;;;;;24.52;14.25;;;;;;;24.92;100.00;101193.38;5082507;28;20475;-65
2023/09/12 09:26:48;;;;;;;25.45;15.63;;;;;;;24.79;100.00;101184.13;5081946;28;20484;-61
2023/09/12 09:29:18;;;;;;;27.63;16.90;;;;;;;24.74;100.00;101186.16;5091001;28;20039;-62
2023/09/12 09:31:45;;;;;;;26.30;16.98;;;;;;;25.02;100.00;101186.53;5092508;28;20020;-62
2023/09/12 09:34:13;;;;;;;26.88;16.65;;;;;;;25.29;100.00;101180.63;5092318;28;20036;-64
2023/09/12 09:36:42;;;;;;;26.98;17.10;;;;;;;25.61;100.00;101183.50;5092302;28;20024;-62
2023/09/12 09:39:08;;;;;;;27.50;17.55;;;;;;;26.05;100.00;101190.19;5092572;28;20028;-64
2023/09/12 09:41:33;;;;;;;27.65;17.95;;;;;;;26.38;100.00;101190.16;5084844;28;20032;-62
2023/09/12 09:43:59;;;;;;;27.15;17.02;;;;;;;27.05;100.00;101189.06;5089447;28;20068;-66
2023/09/12 09:46:25;;;;;;;27.30;16.83;;;;;;;27.77;100.00;101184.69;5092676;28;20024;-65
2023/09/12 09:48:51;;;;;;;26.00;16.98;;;;;;;28.50;100.00;101186.38;5092226;28;20497;-63
2023/09/12 09:51:17;;;;;;;26.73;17.05;;;;;;;29.38;100.00;101182.34;5092125;28;20029;-66
2023/09/12 09:53:43;;;;;;;25.63;16.40;;;;;;;30.12;100.00;101177.09;5090374;28;20059;-69
2023/09/12 09:56:15;;;;;;;27.20;17.27;;;;;;;29.74;100.00;101184.31;5092389;28;20031;-68
2023/09/12 09:58:50;;;;;;;27.17;17.00;;;;;;;30.44;100.00;101187.53;5092207;28;20032;-68
2023/09/12 10:01:27;;;;;;;25.83;17.02;;;;;;;30.51;100.00;101182.47;5084022;28;20502;-63
2023/09/12 10:03:57;;;;;;;27.08;16.90;;;;;;;30.54;100.00;101194.03;5084561;28;20111;-66
2023/09/12 10:06:23;;;;;;;26.23;16.42;;;;;;;31.31;100.00;101203.72;5090891;28;20452;-66
2023/09/12 10:08:51;;;;;;;27.88;16.70;;;;;;;31.12;100.00;101198.81;5092477;28;20017;-66
2023/09/12 10:11:20;;;;;;;27.55;17.25;;;;;;;31.44;95.56;101209.06;5096116;28;20066;-66
2023/09/12 10:13:57;;;;;;;26.38;17.42;;;;;;;32.13;100.00;101183.59;5095956;28;20024;-66
2023/09/12 10:16:33;;;;;;;27.60;18.52;;;;;;;32.04;100.00;101187.03;5092056;28;20031;-65
2023/09/12 10:19:15;;;;;;;27.25;17.38;;;;;;;32.00;100.00;101177.38;5092980;28;20024;-66
2023/09/12 10:21:54;;;;;;;26.10;16.40;;;;;;;32.40;95.53;101176.84;5095616;28;20032;-66
2023/09/12 10:24:22;;;;;;;26.48;16.98;;;;;;;32.89;79.34;101180.09;5091797;28;20025;-66
2023/09/12 10:26:50;;;;;;;26.48;16.60;;;;;;;31.75;88.42;101180.22;5095378;28;20118;-64
2023/09/12 10:29:16;;;;;;;26.33;17.05;;;;;;;30.98;100.00;101180.72;5095710;28;20028;-65
2023/09/12 10:31:42;;;;;;;27.17;17.33;;;;;;;31.44;100.00;101177.19;5093693;28;20103;-64
2023/09/12 10:34:10;;;;;;;27.42;18.13;;;;;;;32.53;82.32;101172.09;5095594;28;20052;-66
2023/09/12 10:36:40;;;;;;;27.50;17.98;;;;;;;33.62;76.28;101174.72;5095464;28;20149;-66
2023/09/12 10:39:07;;;;;;;26.27;16.20;;;;;;;33.49;72.21;101172.19;5095252;28;20028;-66
2023/09/12 10:41:36;;;;;;;25.00;14.73;;;;;;;33.85;69.16;101172.72;5095207;28;20032;-66
2023/09/12 10:44:09;;;;;;;23.45;12.80;;;;;;;34.18;61.70;101170.66;5095463;28;20028;-67
2023/09/12 10:46:37;;;;;;;21.92;10.65;;;;;;;33.88;60.89;101177.91;5095150;28;20024;-64
2023/09/12 10:49:05;;;;;;;23.90;14.38;;;;;;;33.60;64.17;101168.53;5095137;28;20052;-66
2023/09/12 10:51:31;;;;;;;26.98;17.13;;;;;;;34.72;61.28;101179.47;5095655;28;20414;-67
2023/09/12 10:53:57;;;;;;;29.08;20.08;;;;;;;35.37;58.54;101185.28;5094994;28;20052;-66
2023/09/12 10:56:24;;;;;;;28.17;20.65;;;;;;;35.61;58.44;101182.03;5095075;28;20061;-66
2023/09/12 10:59:03;;;;;;;27.95;18.98;;;;;;;35.31;61.83;101183.09;5095120;28;20035;-66